Time;durP1;ratioP1;P1;durP2;ratioP2;P2;SDS_P1;SDS_P2;PMS_P1;PMS_P2;Temp;Humidity;BMP_temperature;BMP_pressure;BME280_temperature;BME280_humidity;BME280_pressure;Samples;Min_cycle;Max_cycle;Signal;HPM_P1;HPM_P2
2023/08/21 02:33:19;;;;;;;4.82;3.42;;;;;;;20.33;100.00;100728.03;5567884;32;88043;-85
2023/08/21 02:36:23;;;;;;;4.75;3.35;;;;;;;20.22;100.00;100733.53;5550509;32;33785;-85
2023/08/21 02:39:26;;;;;;;5.12;3.37;;;;;;;20.23;100.00;100732.53;5550933;32;34020;-85
2023/08/21 02:42:29;;;;;;;4.50;3.22;;;;;;;20.24;100.00;100734.22;5550600;32;33726;-85
2023/08/21 02:45:31;;;;;;;5.03;4.28;;;;;;;20.26;100.00;100729.56;5550792;32;34038;-85
2023/08/21 02:48:34;;;;;;;3.65;3.20;;;;;;;20.29;100.00;100733.84;5550346;32;34929;-85
2023/08/21 02:51:37;;;;;;;3.70;2.83;;;;;;;20.33;100.00;100728.03;5549879;32;34409;-88
2023/08/21 02:54:39;;;;;;;4.07;2.72;;;;;;;20.37;100.00;100734.03;5550742;32;33555;-89
2023/08/21 02:57:44;;;;;;;3.95;3.10;;;;;;;20.40;100.00;100733.78;5551418;32;33833;-89
2023/08/21 03:00:47;;;;;;;4.30;3.10;;;;;;;20.43;100.00;100733.50;5551049;32;34165;-86
2023/08/21 03:04:51;;;;;;;3.92;3.28;;;;;;;20.55;100.00;100725.34;5567200;32;88612;-85
2023/08/21 03:07:54;;;;;;;3.47;2.90;;;;;;;20.50;100.00;100730.25;5550515;32;34142;-85
2023/08/21 03:10:57;;;;;;;4.18;3.37;;;;;;;20.51;100.00;100732.00;5550308;32;33915;-85
2023/08/21 03:14:00;;;;;;;3.22;2.92;;;;;;;20.51;100.00;100723.91;5551270;32;34004;-86
2023/08/21 03:17:03;;;;;;;3.83;3.03;;;;;;;20.51;100.00;100721.22;5550997;32;33646;-85
2023/08/21 03:20:06;;;;;;;3.80;3.17;;;;;;;20.48;100.00;100727.72;5550908;32;33687;-85
2023/08/21 03:23:09;;;;;;;3.70;3.05;;;;;;;20.46;100.00;100727.84;5550152;32;33671;-86
2023/08/21 03:28:42;;;;;;;3.85;3.28;;;;;;;20.45;100.00;100725.28;5574462;31;151533;-85
2023/08/21 03:36:19;;;;;;;4.47;3.15;;;;;;;20.77;100.00;100729.69;5573983;32;90412;-87
2023/08/21 03:39:22;;;;;;;3.42;2.97;;;;;;;20.77;100.00;100729.69;5551668;32;33645;-85
2023/08/21 03:42:25;;;;;;;4.87;4.00;;;;;;;20.22;100.00;100733.53;5550352;32;33732;-88
2023/08/21 03:45:28;;;;;;;5.05;3.30;;;;;;;20.12;100.00;100736.13;5550030;32;34808;-89
2023/08/21 03:48:31;;;;;;;3.92;3.17;;;;;;;20.10;100.00;100740.78;5550034;32;33514;-89
2023/08/21 03:51:36;;;;;;;2.92;2.72;;;;;;;20.12;100.00;100748.75;5550203;32;34528;-86
2023/08/21 03:54:39;;;;;;;4.25;2.65;;;;;;;20.08;100.00;100748.16;5549948;32;33988;-86
2023/08/21 04:09:23;;;;;;;3.15;2.80;;;;;;;20.84;100.00;100730.03;5506429;32;85633;-86
2023/08/21 04:12:26;;;;;;;3.75;3.05;;;;;;;20.84;100.00;100730.03;5507480;32;33579;-86
2023/08/21 04:15:31;;;;;;;4.60;3.72;;;;;;;20.20;100.00;100730.94;5507094;32;33548;-86
2023/08/21 04:18:36;;;;;;;3.80;3.03;;;;;;;20.17;100.00;100731.19;5506918;32;34053;-86
2023/08/21 04:21:43;;;;;;;4.28;3.22;;;;;;;20.18;100.00;100732.06;5507124;32;33522;-89
2023/08/21 04:24:47;;;;;;;3.70;3.25;;;;;;;20.22;100.00;100743.44;5507651;32;33969;-90
2023/08/21 04:27:49;;;;;;;5.05;3.47;;;;;;;20.29;100.00;100745.47;5507764;32;34460;-90
2023/08/21 04:30:52;;;;;;;3.50;3.08;;;;;;;20.29;100.00;100748.16;5508571;32;34319;-89
2023/08/21 04:33:55;;;;;;;4.95;3.58;;;;;;;20.28;100.00;100754.53;5508965;32;34753;-87
2023/08/21 04:36:57;;;;;;;4.32;3.28;;;;;;;20.31;100.00;100746.19;5514373;32;34029;-87
2023/08/21 04:40:00;;;;;;;3.15;2.87;;;;;;;20.36;100.00;100759.25;5519981;32;34762;-87
2023/08/21 04:43:03;;;;;;;4.20;3.20;;;;;;;20.38;100.00;100754.59;5519570;32;35094;-87
2023/08/21 04:46:06;;;;;;;4.30;3.10;;;;;;;20.46;100.00;100752.09;5511708;32;35142;-87
2023/08/21 04:49:10;;;;;;;4.00;3.47;;;;;;;20.54;100.00;100750.59;5506734;32;33859;-87
2023/08/21 04:52:13;;;;;;;4.72;3.03;;;;;;;20.61;100.00;100749.06;5505729;32;33578;-87
2023/08/21 04:55:16;;;;;;;4.35;3.58;;;;;;;20.69;100.00;100751.97;5505987;32;33502;-87
2023/08/21 04:58:19;;;;;;;3.75;3.22;;;;;;;20.78;100.00;100746.75;5506177;32;33531;-87
2023/08/21 05:01:22;;;;;;;4.28;3.03;;;;;;;20.90;100.00;100752.91;5505869;32;33479;-87
2023/08/21 05:04:25;;;;;;;3.42;3.10;;;;;;;20.99;100.00;100765.59;5507035;32;33802;-87
2023/08/21 05:07:28;;;;;;;3.83;3.35;;;;;;;21.09;100.00;100768.34;5505128;32;33971;-87
2023/08/21 05:10:32;;;;;;;4.07;3.30;;;;;;;21.23;100.00;100765.25;5493999;32;33780;-87
2023/08/21 05:16:05;;;;;;;4.03;3.28;;;;;;;21.44;100.00;100760.78;5564196;32;232662;-85
2023/08/21 05:19:08;;;;;;;5.18;3.83;;;;;;;21.54;100.00;100769.75;5548544;32;33576;-85
2023/08/21 05:22:11;;;;;;;4.07;3.50;;;;;;;21.69;100.00;100775.63;5547916;32;34048;-85
2023/08/21 05:25:15;;;;;;;2.95;2.70;;;;;;;21.85;100.00;100780.50;5547848;32;33374;-87
2023/08/21 05:28:18;;;;;;;3.83;3.25;;;;;;;22.01;100.00;100781.78;5547108;32;33729;-87
2023/08/21 05:31:21;;;;;;;4.85;3.22;;;;;;;22.23;100.00;100779.81;5547742;32;34489;-87
2023/08/21 05:34:25;;;;;;;3.47;3.10;;;;;;;22.45;100.00;100781.34;5546705;32;33906;-87
2023/08/21 05:37:28;;;;;;;3.17;2.85;;;;;;;22.69;100.00;100786.31;5546398;32;34010;-87
2023/08/21 05:40:31;;;;;;;3.85;2.83;;;;;;;22.93;100.00;100786.81;5547751;32;33532;-87
2023/08/21 05:43:34;;;;;;;3.28;2.83;;;;;;;23.40;100.00;100778.66;5548562;32;33738;-87
2023/08/21 05:46:38;;;;;;;3.47;3.17;;;;;;;23.95;100.00;100784.97;5546549;32;33931;-87
2023/08/21 05:49:41;;;;;;;5.00;3.80;;;;;;;24.49;100.00;100792.25;5545346;32;33685;-87
2023/08/21 05:52:46;;;;;;;3.45;2.78;;;;;;;24.98;100.00;100799.03;5545664;32;34615;-87
2023/08/21 05:55:49;;;;;;;3.58;3.28;;;;;;;25.14;100.00;100792.00;5546404;32;33745;-87
2023/08/21 05:58:52;;;;;;;5.55;3.65;;;;;;;25.22;100.00;100800.19;5547137;32;33895;-87
2023/08/21 06:01:58;;;;;;;3.35;2.95;;;;;;;25.90;100.00;100794.81;5546820;32;34307;-87
2023/08/21 06:05:03;;;;;;;4.28;3.67;;;;;;;26.78;100.00;100797.88;5547225;32;34011;-87
2023/08/21 06:08:05;;;;;;;5.18;3.78;;;;;;;27.83;100.00;100799.72;5546298;32;34653;-87
2023/08/21 06:11:09;;;;;;;3.22;2.92;;;;;;;28.17;100.00;100805.78;5548349;32;34606;-86
2023/08/21 06:14:11;;;;;;;3.65;3.20;;;;;;;28.16;100.00;100795.91;5556097;32;34449;-87
2023/08/21 06:17:14;;;;;;;4.25;3.08;;;;;;;28.05;100.00;100800.75;5567795;32;34085;-87
2023/08/21 06:20:18;;;;;;;3.58;3.28;;;;;;;27.89;100.00;100809.87;5565764;32;33929;-88
2023/08/21 06:23:21;;;;;;;5.95;3.30;;;;;;;27.68;100.00;100805.06;5563564;32;33787;-88
2023/08/21 06:26:24;;;;;;;3.67;3.25;;;;;;;27.61;100.00;100806.81;5555021;32;33773;-89
2023/08/21 06:29:27;;;;;;;3.95;3.60;;;;;;;27.66;100.00;100810.69;5549991;32;33785;-88
2023/08/21 06:32:33;;;;;;;3.33;2.90;;;;;;;27.54;100.00;100812.09;5551062;32;34377;-85
2023/08/21 06:35:37;;;;;;;3.95;2.97;;;;;;;27.46;100.00;100802.09;5548786;32;34396;-87
2023/08/21 06:38:40;;;;;;;3.47;3.00;;;;;;;27.33;100.00;100807.25;5548790;32;33795;-90
2023/08/21 06:41:43;;;;;;;4.60;3.92;;;;;;;27.40;100.00;100805.53;5550380;32;33787;-90
2023/08/21 06:44:48;;;;;;;3.17;2.87;;;;;;;27.55;100.00;100803.75;5550144;32;33864;-89
2023/08/21 06:47:50;;;;;;;3.08;2.75;;;;;;;27.74;100.00;100800.81;5551005;32;34489;-90
2023/08/21 06:50:53;;;;;;;3.15;2.85;;;;;;;28.31;100.00;100807.72;5551053;32;33609;-89
2023/08/21 06:53:56;;;;;;;3.67;3.20;;;;;;;28.66;100.00;100804.53;5551154;32;33772;-90
2023/08/21 06:56:59;;;;;;;4.47;3.30;;;;;;;29.69;97.42;100811.19;5554300;32;34796;-89
2023/08/21 07:00:02;;;;;;;4.68;3.60;;;;;;;30.47;93.63;100813.22;5553949;32;34494;-87
2023/08/21 07:03:07;;;;;;;4.55;2.83;;;;;;;30.24;92.90;100811.59;5550457;32;33702;-88
2023/08/21 07:06:10;;;;;;;3.28;2.95;;;;;;;29.82;94.82;100805.88;5550235;32;35314;-92
2023/08/21 07:09:13;;;;;;;3.62;2.90;;;;;;;29.39;94.69;100805.75;5549756;32;34189;-92
2023/08/21 07:12:16;;;;;;;3.70;3.10;;;;;;;29.25;99.43;100805.59;5549735;32;34509;-92
2023/08/21 07:15:18;;;;;;;3.10;2.78;;;;;;;29.19;100.00;100811.81;5549062;32;33892;-88
2023/08/21 07:18:22;;;;;;;3.15;2.85;;;;;;;29.61;93.79;100814.88;5549800;32;34147;-88
2023/08/21 07:21:25;;;;;;;4.00;3.30;;;;;;;30.41;92.98;100810.47;5551648;32;34398;-87
2023/08/21 07:24:35;;;;;;;3.25;2.92;;;;;;;30.00;92.38;100810.03;5554789;32;33923;-88
2023/08/21 07:27:39;;;;;;;3.20;2.90;;;;;;;30.48;91.11;100805.88;5554500;32;34634;-89
2023/08/21 07:30:41;;;;;;;4.18;3.00;;;;;;;30.18;88.61;100809.63;5553013;32;34123;-87
2023/08/21 07:33:44;;;;;;;3.55;3.15;;;;;;;30.19;91.79;100805.00;5551033;32;34055;-88
2023/08/21 07:36:47;;;;;;;3.65;3.25;;;;;;;29.82;89.36;100807.78;5550815;32;33394;-89
2023/08/21 07:39:49;;;;;;;3.20;2.90;;;;;;;29.55;92.01;100812.91;5551110;32;34462;-89
2023/08/21 07:42:52;;;;;;;3.83;3.30;;;;;;;29.54;94.78;100813.97;5552583;32;33963;-89
2023/08/21 07:45:55;;;;;;;3.20;2.90;;;;;;;29.76;95.98;100808.56;5552043;32;33839;-89
2023/08/21 07:48:58;;;;;;;4.30;3.40;;;;;;;29.96;92.37;100812.34;5552326;32;33668;-89
2023/08/21 07:52:02;;;;;;;3.95;3.20;;;;;;;30.11;91.44;100808.72;5550820;32;34392;-89
2023/08/21 07:55:05;;;;;;;4.20;3.70;;;;;;;30.20;91.67;100812.16;5550609;32;33743;-88
2023/08/21 07:58:08;;;;;;;3.55;3.25;;;;;;;30.42;87.03;100815.72;5549697;32;34841;-88
2023/08/21 08:01:11;;;;;;;3.65;3.25;;;;;;;30.90;88.86;100815.06;5550014;32;34851;-88
2023/08/21 08:04:14;;;;;;;3.28;2.85;;;;;;;30.05;92.93;100821.25;5549865;32;33523;-88
2023/08/21 08:07:16;;;;;;;2.70;2.47;;;;;;;30.17;91.52;100821.59;5551236;32;34481;-88
2023/08/21 08:10:19;;;;;;;3.35;3.05;;;;;;;30.73;92.16;100817.28;5550781;32;33777;-87
2023/08/21 08:13:22;;;;;;;4.18;3.30;;;;;;;31.01;89.74;100816.37;5549137;32;33737;-86
2023/08/21 08:16:24;;;;;;;3.90;3.15;;;;;;;32.09;80.51;100822.31;5550191;32;34463;-86
2023/08/21 08:19:30;;;;;;;3.85;3.12;;;;;;;32.51;79.04;100819.41;5549718;32;34249;-86
2023/08/21 08:22:33;;;;;;;3.53;2.90;;;;;;;33.22;75.20;100829.00;5548977;32;33959;-86
2023/08/21 08:25:35;;;;;;;3.67;3.20;;;;;;;33.36;73.21;100816.03;5551440;32;33777;-86
2023/08/21 08:28:38;;;;;;;3.30;3.00;;;;;;;33.27;68.32;100819.03;5551525;32;33498;-87
2023/08/21 08:31:41;;;;;;;4.28;3.30;;;;;;;33.91;67.09;100811.97;5549428;32;33747;-87
2023/08/21 08:34:46;;;;;;;4.18;3.37;;;;;;;33.81;63.40;100816.06;5549032;32;33522;-87
2023/08/21 08:37:49;;;;;;;3.58;3.20;;;;;;;33.65;62.80;100813.81;5549458;32;33827;-87
2023/08/21 08:40:54;;;;;;;3.67;3.22;;;;;;;34.22;53.89;100819.41;5549055;32;33781;-87
2023/08/21 08:44:00;;;;;;;3.17;2.95;;;;;;;34.24;55.78;100816.44;5549486;32;33834;-87
2023/08/21 08:47:03;;;;;;;3.22;2.92;;;;;;;34.94;51.09;100809.84;5549312;32;34035;-87
2023/08/21 08:50:08;;;;;;;3.33;3.03;;;;;;;34.43;55.05;100817.31;5548568;32;34399;-86
2023/08/21 08:53:12;;;;;;;3.97;3.40;;;;;;;34.66;52.59;100816.75;5549712;32;33649;-87
2023/08/21 08:56:19;;;;;;;4.65;3.45;;;;;;;34.05;52.79;100826.53;5548866;32;33612;-86
2023/08/21 08:59:22;;;;;;;4.03;3.47;;;;;;;34.42;55.24;100834.91;5548498;32;33925;-88
2023/08/21 09:02:26;;;;;;;4.28;3.47;;;;;;;35.39;50.22;100827.16;5549324;32;34392;-87
2023/08/21 09:05:29;;;;;;;3.47;3.05;;;;;;;34.99;52.17;100830.37;5549026;32;33619;-87
2023/08/21 09:08:32;;;;;;;4.20;3.80;;;;;;;35.28;51.16;100827.97;5548419;32;33761;-88
2023/08/21 09:11:35;;;;;;;4.03;3.62;;;;;;;35.67;48.68;100823.03;5548197;32;33846;-89
2023/08/21 09:14:39;;;;;;;3.37;3.08;;;;;;;36.20;48.61;100820.53;5549000;32;33549;-90
2023/08/21 09:17:42;;;;;;;3.40;3.10;;;;;;;35.92;48.64;100822.03;5549784;32;35149;-91
2023/08/21 09:20:45;;;;;;;3.53;3.22;;;;;;;36.70;47.45;100817.59;5548814;32;34054;-91
2023/08/21 09:23:50;;;;;;;3.42;3.00;;;;;;;36.69;43.83;100811.22;5548952;32;34275;-92
2023/08/21 09:26:53;;;;;;;4.07;3.65;;;;;;;37.13;45.74;100810.00;5548709;32;35129;-87
2023/08/21 09:29:57;;;;;;;3.60;3.30;;;;;;;37.33;44.49;100810.44;5548706;32;33576;-89
2023/08/21 09:33:00;;;;;;;3.35;3.05;;;;;;;37.32;42.37;100819.81;5549638;32;34075;-88
2023/08/21 09:36:06;;;;;;;3.70;3.30;;;;;;;37.86;43.52;100804.78;5548993;32;34578;-88
2023/08/21 09:39:16;;;;;;;3.62;3.33;;;;;;;37.97;44.03;100800.28;5547993;32;34418;-88
2023/08/21 09:42:21;;;;;;;3.17;2.85;;;;;;;38.25;39.83;100804.09;5549573;32;34093;-88
2023/08/21 09:45:25;;;;;;;3.20;2.90;;;;;;;38.18;39.71;100802.56;5595465;26;34621;-91
2023/08/21 09:56:19;;;;;;;3.25;2.95;;;;;;;38.63;36.85;100790.56;3076613;26;20115;-90
2023/08/21 09:59:24;;;;;;;3.10;2.85;;;;;;;37.49;39.55;100796.87;5535705;32;33891;-90
2023/08/21 10:02:51;;;;;;;3.40;3.10;;;;;;;38.82;37.66;100788.31;5546823;32;33721;-88
2023/08/21 10:05:58;;;;;;;3.33;2.72;;;;;;;39.67;37.38;100788.22;5545259;32;33729;-88
2023/08/21 10:09:01;;;;;;;3.47;3.17;;;;;;;41.69;33.21;100792.22;5574467;26;33475;-89
2023/08/21 10:12:05;;;;;;;3.62;3.17;;;;;;;43.23;31.14;100789.44;5533494;32;32060;-89
2023/08/21 10:15:11;;;;;;;4.53;3.15;;;;;;;42.38;31.81;100788.31;5532341;32;33602;-88
2023/08/21 10:18:25;;;;;;;3.30;3.00;;;;;;;41.74;33.40;100783.03;5533257;32;33584;-88
2023/08/21 10:21:35;;;;;;;3.20;2.90;;;;;;;41.06;35.57;100776.41;5531585;32;33828;-87
2023/08/21 10:24:38;;;;;;;2.92;2.72;;;;;;;39.74;35.80;100772.19;5531431;32;33970;-87
2023/08/21 10:27:42;;;;;;;3.37;2.95;;;;;;;39.59;36.28;100765.41;5531008;32;33745;-87
2023/08/21 10:30:45;;;;;;;3.03;2.83;;;;;;;39.31;38.02;100764.53;5530298;32;35174;-87
2023/08/21 10:33:48;;;;;;;3.40;3.10;;;;;;;40.04;34.78;100762.47;5531521;32;33992;-87
2023/08/21 10:36:59;;;;;;;3.35;3.05;;;;;;;39.83;33.68;100764.22;5531798;32;33793;-87
2023/08/21 10:40:03;;;;;;;3.33;3.03;;;;;;;39.72;34.19;100766.88;5530391;32;33722;-89
2023/08/21 10:43:38;;;;;;;3.03;2.80;;;;;;;40.52;32.92;100765.31;5531127;32;33771;-89
2023/08/21 10:46:50;;;;;;;2.85;2.65;;;;;;;42.63;29.49;100773.50;5534388;32;34177;-89
2023/08/21 10:50:01;;;;;;;3.60;2.78;;;;;;;45.40;25.21;100770.84;5531944;32;34110;-90
2023/08/21 10:53:04;;;;;;;2.70;2.50;;;;;;;45.80;24.32;100773.28;5534919;32;33890;-90
2023/08/21 10:56:07;;;;;;;3.00;2.80;;;;;;;43.43;27.75;100765.34;5534240;32;33968;-88
2023/08/21 10:59:10;;;;;;;2.80;2.60;;;;;;;41.13;31.07;100763.13;5530541;32;33857;-88
2023/08/21 11:02:14;;;;;;;2.42;2.22;;;;;;;39.73;31.79;100757.50;5529604;32;33475;-89
2023/08/21 11:05:17;;;;;;;3.78;3.35;;;;;;;38.29;33.60;100752.63;5530135;32;33517;-93
2023/08/21 11:08:20;;;;;;;3.25;2.90;;;;;;;37.28;37.73;100763.31;5532503;32;34079;-93
2023/08/21 11:11:22;;;;;;;3.03;2.83;;;;;;;37.15;38.87;100744.25;5531057;32;33903;-90
2023/08/21 11:14:26;;;;;;;2.85;2.65;;;;;;;37.58;35.90;100747.56;5531922;32;34239;-92
2023/08/21 11:17:28;;;;;;;2.67;2.47;;;;;;;36.74;35.64;100742.28;5531344;32;33594;-91
2023/08/21 11:20:33;;;;;;;3.65;3.30;;;;;;;37.31;36.27;100745.37;5531131;32;33715;-92
2023/08/21 11:27:17;;;;;;;3.40;3.10;;;;;;;37.96;33.73;100745.97;5530658;32;20090;-90
2023/08/21 11:30:23;;;;;;;3.45;3.15;;;;;;;37.06;36.48;100741.81;5530900;32;33732;-89
2023/08/21 11:33:28;;;;;;;2.87;2.67;;;;;;;36.70;38.19;100734.72;5530272;32;34535;-89
2023/08/21 11:36:31;;;;;;;2.62;2.42;;;;;;;35.51;37.67;100729.84;5536854;32;33812;-89
2023/08/21 11:39:48;;;;;;;3.05;2.80;;;;;;;35.73;41.57;100731.03;5544683;32;34104;-89
2023/08/21 11:42:52;;;;;;;3.25;2.90;;;;;;;36.05;39.77;100729.91;5545234;32;35254;-89
2023/08/21 11:45:54;;;;;;;3.60;3.30;;;;;;;36.51;38.13;100732.06;5535498;32;34975;-87
2023/08/21 11:49:02;;;;;;;3.15;2.83;;;;;;;36.61;38.11;100726.81;5541485;32;33876;-87
2023/08/21 11:52:05;;;;;;;3.65;2.97;;;;;;;35.92;38.52;100724.56;5535108;32;33855;-86
2023/08/21 11:55:11;;;;;;;3.15;2.85;;;;;;;35.37;38.78;100726.44;5530392;32;34187;-89
2023/08/21 11:58:18;;;;;;;3.28;2.97;;;;;;;35.17;40.14;100720.16;5530804;32;33648;-91
2023/08/21 12:01:21;;;;;;;3.12;2.83;;;;;;;35.29;39.73;100717.44;5530959;32;34732;-91
2023/08/21 12:04:25;;;;;;;3.42;3.12;;;;;;;35.44;39.06;100714.25;5538791;26;34811;-91
2023/08/21 12:07:28;;;;;;;3.08;2.87;;;;;;;35.36;39.04;100709.06;5540218;26;33982;-91
2023/08/21 12:10:33;;;;;;;3.15;2.75;;;;;;;35.33;37.81;100704.03;5492964;32;33434;-90
2023/08/21 12:13:36;;;;;;;2.95;2.65;;;;;;;35.46;37.30;100703.00;5499137;32;33690;-91
2023/08/21 12:23:45;;;;;;;2.67;2.47;;;;;;;35.26;38.07;100703.28;5489514;32;34025;-89
2023/08/21 12:26:47;;;;;;;3.20;2.80;;;;;;;35.19;38.03;100704.22;5491640;32;33948;-88
2023/08/21 12:29:53;;;;;;;2.62;2.42;;;;;;;35.30;37.74;100708.09;5491595;32;34821;-89
2023/08/21 12:32:55;;;;;;;3.05;2.75;;;;;;;35.19;37.71;100700.63;5491602;32;33886;-89
2023/08/21 12:36:10;;;;;;;3.00;2.70;;;;;;;35.32;37.64;100702.34;5491357;32;33858;-89
2023/08/21 12:39:14;;;;;;;2.95;2.70;;;;;;;34.85;39.72;100692.78;5492886;32;33750;-88
2023/08/21 12:42:17;;;;;;;2.70;2.50;;;;;;;34.67;40.83;100691.72;5497089;32;33868;-90
2023/08/21 12:45:20;;;;;;;3.05;2.70;;;;;;;35.10;38.83;100691.00;5541588;26;33828;-91
2023/08/21 12:48:23;;;;;;;2.78;2.50;;;;;;;35.15;38.98;100697.47;5532593;32;33954;-90
2023/08/21 12:51:25;;;;;;;3.15;2.85;;;;;;;35.23;38.50;100689.97;5537555;32;33398;-89
2023/08/21 12:54:29;;;;;;;2.60;2.40;;;;;;;34.89;40.97;100693.97;5543911;32;33767;-89
2023/08/21 12:57:33;;;;;;;2.67;2.47;;;;;;;34.17;42.00;100680.78;5544260;32;34240;-87
2023/08/21 13:00:35;;;;;;;2.28;2.12;;;;;;;34.15;42.46;100681.00;5539564;32;33824;-90
2023/08/21 13:03:38;;;;;;;3.20;2.70;;;;;;;33.88;42.73;100675.69;5532997;32;34395;-88
2023/08/21 13:06:41;;;;;;;2.95;2.60;;;;;;;34.14;41.87;100682.09;5533458;32;34039;-89
2023/08/21 13:09:44;;;;;;;2.90;2.60;;;;;;;34.19;40.24;100671.22;5533719;32;34015;-89
2023/08/21 13:12:47;;;;;;;2.30;2.10;;;;;;;34.55;38.63;100671.47;5531772;32;34133;-88
2023/08/21 13:15:50;;;;;;;2.30;2.10;;;;;;;34.66;38.67;100667.16;5529771;32;33541;-88
2023/08/21 13:18:53;;;;;;;2.58;2.37;;;;;;;33.96;40.57;100669.09;5528187;32;33334;-88
2023/08/21 13:21:56;;;;;;;3.40;3.10;;;;;;;34.21;41.86;100663.59;5529300;32;33710;-89
2023/08/21 13:24:59;;;;;;;2.87;2.62;;;;;;;34.59;39.26;100658.13;5528686;32;33635;-89
2023/08/21 13:28:03;;;;;;;3.20;2.67;;;;;;;34.41;40.54;100657.87;5529086;32;33589;-87
2023/08/21 13:31:07;;;;;;;2.50;2.10;;;;;;;34.38;39.96;100661.06;5529913;32;34114;-88
2023/08/21 13:34:10;;;;;;;2.55;2.35;;;;;;;34.30;38.84;100649.50;5529628;32;34678;-89
2023/08/21 13:37:13;;;;;;;2.22;2.03;;;;;;;34.33;38.45;100649.06;5531899;32;34850;-87
2023/08/21 13:40:16;;;;;;;2.42;2.22;;;;;;;34.31;39.39;100651.19;5530431;32;34762;-88
2023/08/21 13:43:19;;;;;;;2.17;1.95;;;;;;;34.41;36.04;100652.38;5532356;32;33797;-88
2023/08/21 13:46:23;;;;;;;2.60;2.25;;;;;;;34.72;36.11;100657.97;5530909;32;34157;-88
2023/08/21 13:49:26;;;;;;;2.45;2.25;;;;;;;34.50;35.93;100655.62;5531303;32;34698;-88
2023/08/21 13:52:28;;;;;;;2.60;2.35;;;;;;;34.39;36.67;100643.47;5531468;32;34551;-88
2023/08/21 13:55:31;;;;;;;2.40;2.22;;;;;;;34.14;37.34;100649.06;5532530;32;34254;-88
2023/08/21 13:58:34;;;;;;;2.42;2.22;;;;;;;34.45;37.17;100649.12;5531071;32;34378;-88
2023/08/21 14:01:39;;;;;;;2.33;2.12;;;;;;;34.64;37.29;100647.25;5530784;32;34481;-92
2023/08/21 14:04:56;;;;;;;2.80;2.35;;;;;;;34.58;36.92;100634.41;5532264;32;34991;-91
2023/08/21 14:08:00;;;;;;;2.95;2.40;;;;;;;34.40;37.84;100634.13;5529677;32;33196;-88
2023/08/21 14:11:03;;;;;;;2.45;2.25;;;;;;;34.40;36.41;100636.06;5530436;32;33826;-88
2023/08/21 14:14:05;;;;;;;1.83;1.73;;;;;;;34.39;37.54;100628.88;5530991;32;33518;-88
2023/08/21 14:17:08;;;;;;;2.65;2.45;;;;;;;34.26;36.39;100627.97;5530493;32;33792;-88
2023/08/21 14:20:11;;;;;;;2.33;2.12;;;;;;;34.05;38.02;100626.50;5530910;32;33839;-88
2023/08/21 14:23:14;;;;;;;2.60;2.40;;;;;;;33.93;37.91;100625.53;5530382;32;33988;-88
2023/08/21 14:26:16;;;;;;;3.15;2.15;;;;;;;33.98;37.88;100621.03;5530540;32;34591;-88
2023/08/21 14:29:19;;;;;;;2.65;2.40;;;;;;;33.96;37.61;100614.91;5531477;32;33812;-88
2023/08/21 14:32:22;;;;;;;2.20;2.00;;;;;;;33.90;38.62;100613.06;5532498;32;33767;-88
2023/08/21 14:35:25;;;;;;;2.28;2.08;;;;;;;33.96;38.84;100612.16;5532435;32;33822;-87
2023/08/21 14:38:27;;;;;;;2.22;2.03;;;;;;;33.86;39.34;100612.69;5530111;32;33642;-87
2023/08/21 14:41:30;;;;;;;1.90;1.80;;;;;;;33.90;38.40;100609.47;5530502;32;33884;-87
2023/08/21 14:44:33;;;;;;;2.10;1.90;;;;;;;33.89;38.47;100603.13;5530385;32;33934;-88
2023/08/21 14:47:37;;;;;;;2.40;2.20;;;;;;;33.97;39.57;100602.84;5530162;32;34617;-88
2023/08/21 14:50:40;;;;;;;2.25;2.05;;;;;;;33.91;39.12;100602.87;5529949;32;33969;-88
2023/08/21 14:53:43;;;;;;;2.80;2.47;;;;;;;33.87;40.71;100600.59;5530807;32;34324;-88
2023/08/21 14:56:46;;;;;;;2.20;2.00;;;;;;;33.79;39.64;100602.81;5529901;32;33932;-87
2023/08/21 14:59:49;;;;;;;2.33;2.12;;;;;;;33.64;39.95;100608.66;5530555;32;33970;-88
2023/08/21 15:02:51;;;;;;;2.62;2.30;;;;;;;33.82;41.71;100596.84;5530228;32;33582;-87
2023/08/21 15:05:54;;;;;;;2.65;2.45;;;;;;;33.59;43.48;100595.56;5528546;32;33893;-87
2023/08/21 15:08:57;;;;;;;2.65;2.45;;;;;;;33.26;44.18;100591.12;5529735;32;34994;-87
2023/08/21 15:12:00;;;;;;;2.30;2.20;;;;;;;33.26;45.03;100592.00;5529572;32;34878;-88
2023/08/21 15:15:04;;;;;;;2.40;2.20;;;;;;;33.36;40.65;100593.37;5529625;32;32925;-87
2023/08/21 15:18:06;;;;;;;2.67;2.42;;;;;;;33.50;42.05;100589.50;5530126;32;34258;-87
2023/08/21 15:21:09;;;;;;;2.58;2.37;;;;;;;33.31;42.29;100585.81;5530089;32;33854;-87
